sensor_id;sensor_type;location;lat;lon;timestamp;P1;durP1;ratioP1;P2;durP2;ratioP2
73276;SDS011;61501;43.316;5.372;2023-04-06T00:01:21;4.65;;;3.38;;
73276;SDS011;61501;43.316;5.372;2023-04-06T00:03:47;8.38;;;3.40;;
73276;SDS011;61501;43.316;5.372;2023-04-06T00:06:12;4.28;;;2.53;;
73276;SDS011;61501;43.316;5.372;2023-04-06T00:08:38;3.55;;;2.60;;
73276;SDS011;61501;43.316;5.372;2023-04-06T00:11:04;5.57;;;2.70;;
73276;SDS011;61501;43.316;5.372;2023-04-06T00:13:29;5.00;;;2.92;;
73276;SDS011;61501;43.316;5.372;2023-04-06T00:15:55;4.38;;;2.88;;
73276;SDS011;61501;43.316;5.372;2023-04-06T00:18:20;5.43;;;2.85;;
73276;SDS011;61501;43.316;5.372;2023-04-06T00:20:47;4.15;;;2.67;;
73276;SDS011;61501;43.316;5.372;2023-04-06T00:23:12;3.35;;;2.80;;
73276;SDS011;61501;43.316;5.372;2023-04-06T00:25:38;5.15;;;3.10;;
73276;SDS011;61501;43.316;5.372;2023-04-06T00:28:04;5.97;;;3.40;;
73276;SDS011;61501;43.316;5.372;2023-04-06T00:30:30;5.63;;;3.17;;
73276;SDS011;61501;43.316;5.372;2023-04-06T00:32:55;4.65;;;3.40;;
73276;SDS011;61501;43.316;5.372;2023-04-06T00:35:21;5.90;;;3.30;;
73276;SDS011;61501;43.316;5.372;2023-04-06T00:37:47;4.65;;;3.25;;
73276;SDS011;61501;43.316;5.372;2023-04-06T00:40:13;4.88;;;3.13;;
73276;SDS011;61501;43.316;5.372;2023-04-06T00:42:39;4.72;;;3.20;;
73276;SDS011;61501;43.316;5.372;2023-04-06T00:45:05;5.10;;;3.83;;
73276;SDS011;61501;43.316;5.372;2023-04-06T00:47:32;4.85;;;3.90;;
73276;SDS011;61501;43.316;5.372;2023-04-06T00:49:58;5.55;;;3.85;;
73276;SDS011;61501;43.316;5.372;2023-04-06T00:52:24;4.95;;;3.50;;
73276;SDS011;61501;43.316;5.372;2023-04-06T00:54:53;7.20;;;3.88;;
73276;SDS011;61501;43.316;5.372;2023-04-06T00:57:19;5.22;;;4.00;;
73276;SDS011;61501;43.316;5.372;2023-04-06T00:59:45;4.72;;;3.58;;
73276;SDS011;61501;43.316;5.372;2023-04-06T01:02:12;4.45;;;3.40;;
73276;SDS011;61501;43.316;5.372;2023-04-06T01:04:37;5.75;;;4.47;;
73276;SDS011;61501;43.316;5.372;2023-04-06T01:07:03;5.28;;;3.80;;
73276;SDS011;61501;43.316;5.372;2023-04-06T01:09:29;5.43;;;3.58;;
73276;SDS011;61501;43.316;5.372;2023-04-06T01:11:56;5.00;;;3.30;;
73276;SDS011;61501;43.316;5.372;2023-04-06T01:14:22;3.42;;;2.95;;
73276;SDS011;61501;43.316;5.372;2023-04-06T01:16:49;6.13;;;3.08;;
73276;SDS011;61501;43.316;5.372;2023-04-06T01:19:15;4.07;;;2.60;;
73276;SDS011;61501;43.316;5.372;2023-04-06T01:21:41;4.63;;;3.03;;
73276;SDS011;61501;43.316;5.372;2023-04-06T01:24:07;4.40;;;3.08;;
73276;SDS011;61501;43.316;5.372;2023-04-06T01:26:33;6.18;;;2.55;;
73276;SDS011;61501;43.316;5.372;2023-04-06T01:28:59;3.60;;;2.50;;
73276;SDS011;61501;43.316;5.372;2023-04-06T01:31:25;3.22;;;2.50;;
73276;SDS011;61501;43.316;5.372;2023-04-06T01:33:51;3.17;;;2.28;;
73276;SDS011;61501;43.316;5.372;2023-04-06T01:36:17;4.80;;;2.78;;
73276;SDS011;61501;43.316;5.372;2023-04-06T01:38:43;3.55;;;2.53;;
73276;SDS011;61501;43.316;5.372;2023-04-06T01:41:09;5.38;;;2.53;;
73276;SDS011;61501;43.316;5.372;2023-04-06T01:43:35;3.72;;;2.53;;
73276;SDS011;61501;43.316;5.372;2023-04-06T01:46:01;6.25;;;2.83;;
73276;SDS011;61501;43.316;5.372;2023-04-06T01:48:27;3.55;;;2.90;;
73276;SDS011;61501;43.316;5.372;2023-04-06T01:50:53;4.03;;;2.63;;
73276;SDS011;61501;43.316;5.372;2023-04-06T01:53:19;6.20;;;3.20;;
73276;SDS011;61501;43.316;5.372;2023-04-06T01:55:45;3.70;;;2.42;;
73276;SDS011;61501;43.316;5.372;2023-04-06T01:58:11;6.25;;;2.67;;
73276;SDS011;61501;43.316;5.372;2023-04-06T02:00:37;4.60;;;2.20;;
73276;SDS011;61501;43.316;5.372;2023-04-06T02:03:02;3.63;;;2.05;;
73276;SDS011;61501;43.316;5.372;2023-04-06T02:05:29;3.38;;;2.08;;
73276;SDS011;61501;43.316;5.372;2023-04-06T02:07:55;2.70;;;2.10;;
73276;SDS011;61501;43.316;5.372;2023-04-06T02:10:22;3.58;;;2.60;;
73276;SDS011;61501;43.316;5.372;2023-04-06T02:12:47;4.25;;;2.63;;
73276;SDS011;61501;43.316;5.372;2023-04-06T02:15:13;7.22;;;3.63;;
73276;SDS011;61501;43.316;5.372;2023-04-06T02:17:40;3.97;;;2.60;;
73276;SDS011;61501;43.316;5.372;2023-04-06T02:20:07;5.68;;;2.88;;
73276;SDS011;61501;43.316;5.372;2023-04-06T02:22:33;3.95;;;2.55;;
73276;SDS011;61501;43.316;5.372;2023-04-06T02:24:59;5.47;;;2.42;;
73276;SDS011;61501;43.316;5.372;2023-04-06T02:27:25;3.65;;;2.40;;
73276;SDS011;61501;43.316;5.372;2023-04-06T02:29:51;4.15;;;2.55;;
73276;SDS011;61501;43.316;5.372;2023-04-06T02:32:16;5.22;;;3.00;;
73276;SDS011;61501;43.316;5.372;2023-04-06T02:34:42;5.78;;;2.80;;
73276;SDS011;61501;43.316;5.372;2023-04-06T02:37:08;7.75;;;3.15;;
73276;SDS011;61501;43.316;5.372;2023-04-06T02:39:33;4.28;;;2.83;;
73276;SDS011;61501;43.316;5.372;2023-04-06T02:41:59;5.03;;;2.25;;
73276;SDS011;61501;43.316;5.372;2023-04-06T02:44:25;4.13;;;2.58;;
73276;SDS011;61501;43.316;5.372;2023-04-06T02:46:51;4.53;;;2.72;;
73276;SDS011;61501;43.316;5.372;2023-04-06T02:49:16;5.55;;;2.40;;
73276;SDS011;61501;43.316;5.372;2023-04-06T02:51:42;3.72;;;2.55;;
73276;SDS011;61501;43.316;5.372;2023-04-06T02:54:08;4.97;;;2.45;;
73276;SDS011;61501;43.316;5.372;2023-04-06T02:56:33;4.88;;;3.50;;
73276;SDS011;61501;43.316;5.372;2023-04-06T02:58:59;4.90;;;3.10;;
73276;SDS011;61501;43.316;5.372;2023-04-06T03:01:25;6.25;;;3.13;;
73276;SDS011;61501;43.316;5.372;2023-04-06T03:03:51;5.85;;;3.05;;
73276;SDS011;61501;43.316;5.372;2023-04-06T03:06:17;6.25;;;3.05;;
73276;SDS011;61501;43.316;5.372;2023-04-06T03:08:42;4.72;;;2.65;;
73276;SDS011;61501;43.316;5.372;2023-04-06T03:11:08;5.60;;;2.63;;
73276;SDS011;61501;43.316;5.372;2023-04-06T03:13:34;4.60;;;2.75;;
73276;SDS011;61501;43.316;5.372;2023-04-06T03:16:00;6.05;;;2.50;;
73276;SDS011;61501;43.316;5.372;2023-04-06T03:18:26;7.50;;;3.00;;
73276;SDS011;61501;43.316;5.372;2023-04-06T03:20:52;5.00;;;2.70;;
73276;SDS011;61501;43.316;5.372;2023-04-06T03:23:20;7.55;;;2.90;;
73276;SDS011;61501;43.316;5.372;2023-04-06T03:25:46;4.10;;;2.75;;
73276;SDS011;61501;43.316;5.372;2023-04-06T03:28:12;8.02;;;3.22;;
73276;SDS011;61501;43.316;5.372;2023-04-06T03:30:37;5.32;;;2.90;;
73276;SDS011;61501;43.316;5.372;2023-04-06T03:33:03;8.15;;;3.00;;
73276;SDS011;61501;43.316;5.372;2023-04-06T03:35:29;9.45;;;3.22;;
73276;SDS011;61501;43.316;5.372;2023-04-06T03:37:54;4.97;;;2.95;;
73276;SDS011;61501;43.316;5.372;2023-04-06T03:40:20;6.90;;;3.08;;
73276;SDS011;61501;43.316;5.372;2023-04-06T03:42:46;5.78;;;2.85;;
73276;SDS011;61501;43.316;5.372;2023-04-06T03:45:11;4.70;;;3.13;;
73276;SDS011;61501;43.316;5.372;2023-04-06T03:47:40;8.60;;;3.20;;
73276;SDS011;61501;43.316;5.372;2023-04-06T03:50:06;16.42;;;3.50;;
73276;SDS011;61501;43.316;5.372;2023-04-06T03:52:32;6.07;;;3.17;;
73276;SDS011;61501;43.316;5.372;2023-04-06T03:54:57;5.22;;;3.08;;
73276;SDS011;61501;43.316;5.372;2023-04-06T03:57:23;7.97;;;3.17;;
73276;SDS011;61501;43.316;5.372;2023-04-06T03:59:48;8.63;;;3.28;;
73276;SDS011;61501;43.316;5.372;2023-04-06T04:02:14;6.07;;;3.17;;
73276;SDS011;61501;43.316;5.372;2023-04-06T04:04:40;7.35;;;3.33;;
73276;SDS011;61501;43.316;5.372;2023-04-06T04:07:06;9.32;;;3.70;;
73276;SDS011;61501;43.316;5.372;2023-04-06T04:09:31;9.23;;;4.22;;
73276;SDS011;61501;43.316;5.372;2023-04-06T04:11:57;9.02;;;3.58;;
73276;SDS011;61501;43.316;5.372;2023-04-06T04:14:23;8.27;;;3.88;;
73276;SDS011;61501;43.316;5.372;2023-04-06T04:16:49;11.07;;;3.80;;
73276;SDS011;61501;43.316;5.372;2023-04-06T04:19:14;8.02;;;3.88;;
73276;SDS011;61501;43.316;5.372;2023-04-06T04:21:44;8.35;;;4.22;;
73276;SDS011;61501;43.316;5.372;2023-04-06T04:24:10;16.90;;;4.63;;
73276;SDS011;61501;43.316;5.372;2023-04-06T04:26:36;11.30;;;7.45;;
73276;SDS011;61501;43.316;5.372;2023-04-06T04:29:03;13.43;;;7.38;;
73276;SDS011;61501;43.316;5.372;2023-04-06T04:31:29;15.52;;;8.40;;
73276;SDS011;61501;43.316;5.372;2023-04-06T04:33:55;11.68;;;6.93;;
73276;SDS011;61501;43.316;5.372;2023-04-06T04:36:20;9.80;;;5.80;;
73276;SDS011;61501;43.316;5.372;2023-04-06T04:38:46;9.55;;;5.88;;
73276;SDS011;61501;43.316;5.372;2023-04-06T04:41:12;10.48;;;4.90;;
73276;SDS011;61501;43.316;5.372;2023-04-06T04:43:37;10.57;;;4.75;;
73276;SDS011;61501;43.316;5.372;2023-04-06T04:46:03;7.68;;;4.15;;
73276;SDS011;61501;43.316;5.372;2023-04-06T04:48:29;9.10;;;4.57;;
73276;SDS011;61501;43.316;5.372;2023-04-06T04:50:55;11.00;;;4.82;;
73276;SDS011;61501;43.316;5.372;2023-04-06T04:53:21;9.82;;;4.10;;
73276;SDS011;61501;43.316;5.372;2023-04-06T04:55:47;10.82;;;4.78;;
73276;SDS011;61501;43.316;5.372;2023-04-06T04:58:12;6.22;;;3.30;;
73276;SDS011;61501;43.316;5.372;2023-04-06T05:00:41;7.15;;;3.50;;
73276;SDS011;61501;43.316;5.372;2023-04-06T05:03:14;5.18;;;2.85;;
73276;SDS011;61501;43.316;5.372;2023-04-06T05:05:49;9.43;;;3.72;;
73276;SDS011;61501;43.316;5.372;2023-04-06T05:08:15;6.47;;;3.47;;
73276;SDS011;61501;43.316;5.372;2023-04-06T05:10:46;6.72;;;3.70;;
73276;SDS011;61501;43.316;5.372;2023-04-06T05:13:13;6.90;;;4.28;;
73276;SDS011;61501;43.316;5.372;2023-04-06T05:15:39;8.50;;;4.25;;
73276;SDS011;61501;43.316;5.372;2023-04-06T05:18:07;9.63;;;4.93;;
73276;SDS011;61501;43.316;5.372;2023-04-06T05:20:33;9.55;;;5.25;;
73276;SDS011;61501;43.316;5.372;2023-04-06T05:22:59;6.00;;;4.20;;
73276;SDS011;61501;43.316;5.372;2023-04-06T05:25:25;10.18;;;4.47;;
73276;SDS011;61501;43.316;5.372;2023-04-06T05:27:51;8.98;;;4.50;;
73276;SDS011;61501;43.316;5.372;2023-04-06T05:30:17;8.27;;;4.20;;
73276;SDS011;61501;43.316;5.372;2023-04-06T05:32:43;11.65;;;4.30;;
73276;SDS011;61501;43.316;5.372;2023-04-06T05:35:09;14.57;;;4.68;;
73276;SDS011;61501;43.316;5.372;2023-04-06T05:37:36;12.55;;;4.97;;
73276;SDS011;61501;43.316;5.372;2023-04-06T05:40:02;13.13;;;4.97;;
73276;SDS011;61501;43.316;5.372;2023-04-06T05:42:28;11.45;;;4.32;;
73276;SDS011;61501;43.316;5.372;2023-04-06T05:45:02;12.90;;;4.47;;
73276;SDS011;61501;43.316;5.372;2023-04-06T05:47:29;14.00;;;4.43;;
73276;SDS011;61501;43.316;5.372;2023-04-06T05:49:55;11.50;;;4.30;;
73276;SDS011;61501;43.316;5.372;2023-04-06T05:52:20;14.13;;;4.68;;
73276;SDS011;61501;43.316;5.372;2023-04-06T05:54:46;10.98;;;4.40;;
73276;SDS011;61501;43.316;5.372;2023-04-06T05:57:12;10.68;;;3.92;;
73276;SDS011;61501;43.316;5.372;2023-04-06T06:02:23;7.93;;;4.07;;
73276;SDS011;61501;43.316;5.372;2023-04-06T06:04:49;9.05;;;4.05;;
73276;SDS011;61501;43.316;5.372;2023-04-06T06:07:15;7.28;;;3.90;;
73276;SDS011;61501;43.316;5.372;2023-04-06T06:09:40;6.93;;;3.85;;
73276;SDS011;61501;43.316;5.372;2023-04-06T06:12:06;6.10;;;3.70;;
73276;SDS011;61501;43.316;5.372;2023-04-06T06:14:32;9.32;;;3.95;;
73276;SDS011;61501;43.316;5.372;2023-04-06T06:16:58;8.00;;;3.65;;
73276;SDS011;61501;43.316;5.372;2023-04-06T06:19:24;7.63;;;3.78;;
73276;SDS011;61501;43.316;5.372;2023-04-06T06:21:50;6.60;;;3.20;;
73276;SDS011;61501;43.316;5.372;2023-04-06T06:24:15;8.10;;;3.55;;
73276;SDS011;61501;43.316;5.372;2023-04-06T06:26:41;4.90;;;3.25;;
73276;SDS011;61501;43.316;5.372;2023-04-06T06:29:08;8.07;;;3.78;;
73276;SDS011;61501;43.316;5.372;2023-04-06T06:31:33;7.63;;;3.45;;
73276;SDS011;61501;43.316;5.372;2023-04-06T06:34:00;7.95;;;3.58;;
73276;SDS011;61501;43.316;5.372;2023-04-06T06:36:26;5.90;;;3.50;;
73276;SDS011;61501;43.316;5.372;2023-04-06T06:38:52;11.20;;;3.95;;
73276;SDS011;61501;43.316;5.372;2023-04-06T06:41:18;8.75;;;4.43;;
73276;SDS011;61501;43.316;5.372;2023-04-06T06:43:43;10.40;;;3.83;;
73276;SDS011;61501;43.316;5.372;2023-04-06T06:46:09;10.20;;;3.50;;
73276;SDS011;61501;43.316;5.372;2023-04-06T06:48:35;6.45;;;3.13;;
73276;SDS011;61501;43.316;5.372;2023-04-06T06:51:01;7.15;;;3.40;;
73276;SDS011;61501;43.316;5.372;2023-04-06T06:53:26;8.18;;;3.30;;
73276;SDS011;61501;43.316;5.372;2023-04-06T06:55:52;6.22;;;3.00;;
73276;SDS011;61501;43.316;5.372;2023-04-06T06:58:18;7.57;;;3.55;;
73276;SDS011;61501;43.316;5.372;2023-04-06T07:00:47;5.18;;;3.35;;
73276;SDS011;61501;43.316;5.372;2023-04-06T07:03:12;5.03;;;3.05;;
73276;SDS011;61501;43.316;5.372;2023-04-06T07:05:38;7.05;;;3.13;;
73276;SDS011;61501;43.316;5.372;2023-04-06T07:08:10;6.13;;;3.47;;
73276;SDS011;61501;43.316;5.372;2023-04-06T07:10:35;6.80;;;3.10;;
73276;SDS011;61501;43.316;5.372;2023-04-06T07:13:01;5.55;;;2.80;;
73276;SDS011;61501;43.316;5.372;2023-04-06T07:15:27;5.40;;;2.88;;
73276;SDS011;61501;43.316;5.372;2023-04-06T07:17:52;6.32;;;2.80;;
73276;SDS011;61501;43.316;5.372;2023-04-06T07:20:19;7.70;;;3.33;;
73276;SDS011;61501;43.316;5.372;2023-04-06T07:22:45;7.30;;;3.10;;
73276;SDS011;61501;43.316;5.372;2023-04-06T07:25:10;3.90;;;2.38;;
73276;SDS011;61501;43.316;5.372;2023-04-06T07:27:36;4.18;;;2.38;;
73276;SDS011;61501;43.316;5.372;2023-04-06T07:30:02;4.30;;;2.83;;
73276;SDS011;61501;43.316;5.372;2023-04-06T07:32:28;5.55;;;2.70;;
73276;SDS011;61501;43.316;5.372;2023-04-06T07:34:54;8.70;;;3.42;;
73276;SDS011;61501;43.316;5.372;2023-04-06T07:37:19;5.95;;;2.85;;
73276;SDS011;61501;43.316;5.372;2023-04-06T07:39:45;5.85;;;3.15;;
73276;SDS011;61501;43.316;5.372;2023-04-06T07:42:11;6.32;;;3.42;;
73276;SDS011;61501;43.316;5.372;2023-04-06T07:44:37;6.53;;;3.75;;
73276;SDS011;61501;43.316;5.372;2023-04-06T07:47:02;7.70;;;3.30;;
73276;SDS011;61501;43.316;5.372;2023-04-06T07:49:28;5.72;;;2.92;;
73276;SDS011;61501;43.316;5.372;2023-04-06T07:51:53;6.78;;;3.17;;
73276;SDS011;61501;43.316;5.372;2023-04-06T07:54:19;6.65;;;3.45;;
73276;SDS011;61501;43.316;5.372;2023-04-06T07:56:45;6.68;;;3.28;;
73276;SDS011;61501;43.316;5.372;2023-04-06T07:59:11;5.32;;;2.90;;
73276;SDS011;61501;43.316;5.372;2023-04-06T08:01:38;8.20;;;3.33;;
73276;SDS011;61501;43.316;5.372;2023-04-06T08:04:04;8.00;;;3.00;;
73276;SDS011;61501;43.316;5.372;2023-04-06T08:06:30;8.65;;;3.00;;
73276;SDS011;61501;43.316;5.372;2023-04-06T08:08:55;4.35;;;2.75;;
73276;SDS011;61501;43.316;5.372;2023-04-06T08:11:21;6.28;;;2.80;;
73276;SDS011;61501;43.316;5.372;2023-04-06T08:13:47;4.22;;;2.78;;
73276;SDS011;61501;43.316;5.372;2023-04-06T08:16:12;6.30;;;3.40;;
73276;SDS011;61501;43.316;5.372;2023-04-06T08:18:38;7.80;;;2.92;;
73276;SDS011;61501;43.316;5.372;2023-04-06T08:21:04;7.78;;;2.90;;
73276;SDS011;61501;43.316;5.372;2023-04-06T08:23:29;5.78;;;2.95;;
73276;SDS011;61501;43.316;5.372;2023-04-06T08:25:55;5.28;;;2.80;;
73276;SDS011;61501;43.316;5.372;2023-04-06T08:28:21;6.40;;;2.70;;
73276;SDS011;61501;43.316;5.372;2023-04-06T08:30:46;3.50;;;2.40;;
73276;SDS011;61501;43.316;5.372;2023-04-06T08:33:12;3.17;;;2.33;;
73276;SDS011;61501;43.316;5.372;2023-04-06T08:35:38;4.57;;;2.97;;
73276;SDS011;61501;43.316;5.372;2023-04-06T08:38:04;7.47;;;3.20;;
73276;SDS011;61501;43.316;5.372;2023-04-06T08:40:35;5.15;;;2.85;;
73276;SDS011;61501;43.316;5.372;2023-04-06T08:43:02;7.78;;;2.63;;
73276;SDS011;61501;43.316;5.372;2023-04-06T08:45:33;10.20;;;3.20;;
73276;SDS011;61501;43.316;5.372;2023-04-06T08:47:59;13.82;;;4.97;;
73276;SDS011;61501;43.316;5.372;2023-04-06T08:50:26;17.30;;;5.75;;
73276;SDS011;61501;43.316;5.372;2023-04-06T08:52:54;12.13;;;4.65;;
73276;SDS011;61501;43.316;5.372;2023-04-06T08:55:20;11.68;;;4.68;;
73276;SDS011;61501;43.316;5.372;2023-04-06T08:57:47;14.55;;;4.50;;
73276;SDS011;61501;43.316;5.372;2023-04-06T09:00:13;7.93;;;3.63;;
73276;SDS011;61501;43.316;5.372;2023-04-06T09:02:42;16.70;;;4.15;;
73276;SDS011;61501;43.316;5.372;2023-04-06T09:05:10;14.48;;;4.13;;
73276;SDS011;61501;43.316;5.372;2023-04-06T09:07:36;5.22;;;3.05;;
73276;SDS011;61501;43.316;5.372;2023-04-06T09:10:03;6.80;;;3.65;;
73276;SDS011;61501;43.316;5.372;2023-04-06T09:12:30;5.22;;;2.95;;
73276;SDS011;61501;43.316;5.372;2023-04-06T09:14:57;14.48;;;4.32;;
73276;SDS011;61501;43.316;5.372;2023-04-06T09:17:27;15.30;;;4.10;;
73276;SDS011;61501;43.316;5.372;2023-04-06T09:19:58;8.90;;;3.08;;
73276;SDS011;61501;43.316;5.372;2023-04-06T09:22:25;7.00;;;3.30;;
73276;SDS011;61501;43.316;5.372;2023-04-06T09:24:59;13.88;;;4.00;;
73276;SDS011;61501;43.316;5.372;2023-04-06T09:30:10;9.18;;;3.15;;
73276;SDS011;61501;43.316;5.372;2023-04-06T09:32:51;8.35;;;2.67;;
73276;SDS011;61501;43.316;5.372;2023-04-06T09:35:19;7.03;;;3.53;;
73276;SDS011;61501;43.316;5.372;2023-04-06T09:37:45;7.80;;;3.65;;
73276;SDS011;61501;43.316;5.372;2023-04-06T09:40:12;6.85;;;3.53;;
73276;SDS011;61501;43.316;5.372;2023-04-06T09:42:42;8.35;;;3.53;;
73276;SDS011;61501;43.316;5.372;2023-04-06T09:45:10;7.82;;;3.47;;
73276;SDS011;61501;43.316;5.372;2023-04-06T09:47:36;7.85;;;3.30;;
73276;SDS011;61501;43.316;5.372;2023-04-06T09:50:02;4.35;;;2.63;;
73276;SDS011;61501;43.316;5.372;2023-04-06T09:52:38;5.78;;;2.45;;
73276;SDS011;61501;43.316;5.372;2023-04-06T09:55:08;6.57;;;2.97;;
73276;SDS011;61501;43.316;5.372;2023-04-06T09:57:45;6.13;;;2.90;;
73276;SDS011;61501;43.316;5.372;2023-04-06T10:00:42;5.57;;;2.83;;
73276;SDS011;61501;43.316;5.372;2023-04-06T10:05:57;7.85;;;2.65;;
73276;SDS011;61501;43.316;5.372;2023-04-06T10:08:29;8.30;;;2.75;;
73276;SDS011;61501;43.316;5.372;2023-04-06T10:10:57;4.47;;;1.95;;
73276;SDS011;61501;43.316;5.372;2023-04-06T10:13:25;5.10;;;2.08;;
73276;SDS011;61501;43.316;5.372;2023-04-06T10:15:51;4.18;;;2.25;;
73276;SDS011;61501;43.316;5.372;2023-04-06T10:18:17;6.45;;;2.65;;
73276;SDS011;61501;43.316;5.372;2023-04-06T10:23:24;3.38;;;2.28;;
73276;SDS011;61501;43.316;5.372;2023-04-06T10:26:00;4.97;;;2.75;;
73276;SDS011;61501;43.316;5.372;2023-04-06T10:28:30;7.35;;;3.15;;
73276;SDS011;61501;43.316;5.372;2023-04-06T10:30:58;4.15;;;2.75;;
73276;SDS011;61501;43.316;5.372;2023-04-06T10:33:26;5.03;;;2.30;;
73276;SDS011;61501;43.316;5.372;2023-04-06T10:35:52;5.75;;;2.30;;
73276;SDS011;61501;43.316;5.372;2023-04-06T10:38:19;6.55;;;3.35;;
73276;SDS011;61501;43.316;5.372;2023-04-06T10:40:49;3.53;;;2.20;;
73276;SDS011;61501;43.316;5.372;2023-04-06T10:43:21;6.10;;;2.53;;
73276;SDS011;61501;43.316;5.372;2023-04-06T10:45:57;4.70;;;2.40;;
73276;SDS011;61501;43.316;5.372;2023-04-06T10:48:25;6.32;;;2.33;;
73276;SDS011;61501;43.316;5.372;2023-04-06T10:51:11;4.18;;;2.30;;
73276;SDS011;61501;43.316;5.372;2023-04-06T10:53:39;5.65;;;2.58;;
73276;SDS011;61501;43.316;5.372;2023-04-06T10:56:10;3.80;;;2.05;;
73276;SDS011;61501;43.316;5.372;2023-04-06T10:58:37;3.47;;;2.17;;
73276;SDS011;61501;43.316;5.372;2023-04-06T11:01:03;3.08;;;1.77;;
73276;SDS011;61501;43.316;5.372;2023-04-06T11:03:29;5.78;;;2.70;;
73276;SDS011;61501;43.316;5.372;2023-04-06T11:05:55;4.20;;;2.40;;
73276;SDS011;61501;43.316;5.372;2023-04-06T11:08:30;6.72;;;2.70;;
73276;SDS011;61501;43.316;5.372;2023-04-06T11:11:07;5.18;;;2.40;;
73276;SDS011;61501;43.316;5.372;2023-04-06T11:13:49;4.50;;;2.63;;
73276;SDS011;61501;43.316;5.372;2023-04-06T11:16:19;6.70;;;2.30;;
73276;SDS011;61501;43.316;5.372;2023-04-06T11:21:14;4.82;;;2.80;;
73276;SDS011;61501;43.316;5.372;2023-04-06T11:23:39;6.30;;;2.70;;
73276;SDS011;61501;43.316;5.372;2023-04-06T11:26:09;5.10;;;2.50;;
73276;SDS011;61501;43.316;5.372;2023-04-06T11:28:36;6.45;;;3.17;;
73276;SDS011;61501;43.316;5.372;2023-04-06T11:31:02;5.18;;;3.33;;
73276;SDS011;61501;43.316;5.372;2023-04-06T11:33:28;4.90;;;2.88;;
73276;SDS011;61501;43.316;5.372;2023-04-06T11:35:56;6.35;;;2.53;;
73276;SDS011;61501;43.316;5.372;2023-04-06T11:38:22;6.25;;;2.65;;
73276;SDS011;61501;43.316;5.372;2023-04-06T11:40:52;5.85;;;2.58;;
73276;SDS011;61501;43.316;5.372;2023-04-06T11:43:25;6.40;;;2.88;;
73276;SDS011;61501;43.316;5.372;2023-04-06T11:46:02;8.95;;;3.58;;
73276;SDS011;61501;43.316;5.372;2023-04-06T11:48:28;3.85;;;2.65;;
73276;SDS011;61501;43.316;5.372;2023-04-06T11:50:58;7.05;;;2.85;;
73276;SDS011;61501;43.316;5.372;2023-04-06T11:53:28;6.03;;;3.30;;
73276;SDS011;61501;43.316;5.372;2023-04-06T11:55:54;6.32;;;2.70;;
73276;SDS011;61501;43.316;5.372;2023-04-06T11:58:21;4.78;;;2.90;;
73276;SDS011;61501;43.316;5.372;2023-04-06T12:00:46;4.22;;;2.60;;
73276;SDS011;61501;43.316;5.372;2023-04-06T12:03:12;5.30;;;2.30;;
73276;SDS011;61501;43.316;5.372;2023-04-06T12:05:38;6.68;;;2.67;;
73276;SDS011;61501;43.316;5.372;2023-04-06T12:08:05;5.43;;;2.97;;
73276;SDS011;61501;43.316;5.372;2023-04-06T12:10:30;7.25;;;3.25;;
73276;SDS011;61501;43.316;5.372;2023-04-06T12:12:56;20.65;;;2.97;;
73276;SDS011;61501;43.316;5.372;2023-04-06T12:15:22;9.45;;;2.55;;
73276;SDS011;61501;43.316;5.372;2023-04-06T12:17:48;7.18;;;2.45;;
73276;SDS011;61501;43.316;5.372;2023-04-06T12:20:14;23.77;;;4.65;;
73276;SDS011;61501;43.316;5.372;2023-04-06T12:22:40;11.80;;;2.40;;
73276;SDS011;61501;43.316;5.372;2023-04-06T12:25:06;6.30;;;2.28;;
73276;SDS011;61501;43.316;5.372;2023-04-06T12:27:32;4.93;;;2.13;;
73276;SDS011;61501;43.316;5.372;2023-04-06T12:29:58;4.10;;;1.90;;
73276;SDS011;61501;43.316;5.372;2023-04-06T12:32:23;5.85;;;2.35;;
73276;SDS011;61501;43.316;5.372;2023-04-06T12:34:50;6.18;;;2.08;;
73276;SDS011;61501;43.316;5.372;2023-04-06T12:37:17;4.72;;;2.20;;
73276;SDS011;61501;43.316;5.372;2023-04-06T12:39:43;6.50;;;2.40;;
73276;SDS011;61501;43.316;5.372;2023-04-06T12:42:10;6.40;;;2.03;;
73276;SDS011;61501;43.316;5.372;2023-04-06T12:44:37;6.85;;;2.28;;
73276;SDS011;61501;43.316;5.372;2023-04-06T12:47:03;3.88;;;2.22;;
73276;SDS011;61501;43.316;5.372;2023-04-06T12:49:29;5.30;;;2.50;;
73276;SDS011;61501;43.316;5.372;2023-04-06T12:51:55;8.07;;;2.78;;
73276;SDS011;61501;43.316;5.372;2023-04-06T12:54:21;4.95;;;2.38;;
73276;SDS011;61501;43.316;5.372;2023-04-06T12:56:46;4.72;;;2.30;;
73276;SDS011;61501;43.316;5.372;2023-04-06T12:59:12;4.63;;;2.92;;
73276;SDS011;61501;43.316;5.372;2023-04-06T13:01:38;4.60;;;2.20;;
73276;SDS011;61501;43.316;5.372;2023-04-06T13:04:03;5.78;;;2.88;;
73276;SDS011;61501;43.316;5.372;2023-04-06T13:06:29;6.65;;;2.08;;
73276;SDS011;61501;43.316;5.372;2023-04-06T13:08:55;4.75;;;2.70;;
73276;SDS011;61501;43.316;5.372;2023-04-06T13:11:21;5.30;;;2.47;;
73276;SDS011;61501;43.316;5.372;2023-04-06T13:13:48;3.95;;;2.10;;
73276;SDS011;61501;43.316;5.372;2023-04-06T13:16:14;4.15;;;2.10;;
73276;SDS011;61501;43.316;5.372;2023-04-06T13:18:40;4.57;;;2.22;;
73276;SDS011;61501;43.316;5.372;2023-04-06T13:21:06;4.47;;;2.40;;
73276;SDS011;61501;43.316;5.372;2023-04-06T13:23:32;5.75;;;2.40;;
73276;SDS011;61501;43.316;5.372;2023-04-06T13:26:00;6.47;;;2.45;;
73276;SDS011;61501;43.316;5.372;2023-04-06T13:28:28;6.65;;;2.55;;
73276;SDS011;61501;43.316;5.372;2023-04-06T13:30:55;4.53;;;2.10;;
73276;SDS011;61501;43.316;5.372;2023-04-06T13:33:21;6.13;;;2.63;;
73276;SDS011;61501;43.316;5.372;2023-04-06T13:35:47;5.88;;;2.40;;
73276;SDS011;61501;43.316;5.372;2023-04-06T13:38:13;6.20;;;3.10;;
73276;SDS011;61501;43.316;5.372;2023-04-06T13:40:39;6.85;;;2.47;;
73276;SDS011;61501;43.316;5.372;2023-04-06T13:43:06;4.22;;;2.47;;
73276;SDS011;61501;43.316;5.372;2023-04-06T13:45:32;5.78;;;2.50;;
73276;SDS011;61501;43.316;5.372;2023-04-06T13:47:58;6.00;;;2.95;;
73276;SDS011;61501;43.316;5.372;2023-04-06T13:50:26;7.45;;;2.72;;
73276;SDS011;61501;43.316;5.372;2023-04-06T13:52:52;5.97;;;2.55;;
73276;SDS011;61501;43.316;5.372;2023-04-06T13:55:18;4.07;;;2.30;;
73276;SDS011;61501;43.316;5.372;2023-04-06T13:57:44;6.40;;;2.40;;
73276;SDS011;61501;43.316;5.372;2023-04-06T14:00:09;6.10;;;2.60;;
73276;SDS011;61501;43.316;5.372;2023-04-06T14:02:37;4.68;;;2.63;;
73276;SDS011;61501;43.316;5.372;2023-04-06T14:05:06;5.47;;;2.40;;
73276;SDS011;61501;43.316;5.372;2023-04-06T14:07:32;7.28;;;2.72;;
73276;SDS011;61501;43.316;5.372;2023-04-06T14:09:58;9.80;;;2.80;;
73276;SDS011;61501;43.316;5.372;2023-04-06T14:12:23;5.38;;;2.17;;
73276;SDS011;61501;43.316;5.372;2023-04-06T14:14:49;4.95;;;2.88;;
73276;SDS011;61501;43.316;5.372;2023-04-06T14:17:15;4.30;;;3.20;;
73276;SDS011;61501;43.316;5.372;2023-04-06T14:19:40;4.22;;;2.40;;
73276;SDS011;61501;43.316;5.372;2023-04-06T14:22:06;4.60;;;2.95;;
73276;SDS011;61501;43.316;5.372;2023-04-06T14:24:33;5.95;;;2.90;;
73276;SDS011;61501;43.316;5.372;2023-04-06T14:27:00;8.07;;;3.50;;
73276;SDS011;61501;43.316;5.372;2023-04-06T14:29:27;8.75;;;3.17;;
73276;SDS011;61501;43.316;5.372;2023-04-06T14:31:53;13.25;;;4.07;;
73276;SDS011;61501;43.316;5.372;2023-04-06T14:34:24;7.43;;;2.50;;
73276;SDS011;61501;43.316;5.372;2023-04-06T14:36:51;6.38;;;2.83;;
73276;SDS011;61501;43.316;5.372;2023-04-06T14:39:17;4.78;;;2.63;;
73276;SDS011;61501;43.316;5.372;2023-04-06T14:41:42;4.63;;;3.05;;
73276;SDS011;61501;43.316;5.372;2023-04-06T14:44:08;6.22;;;2.47;;
73276;SDS011;61501;43.316;5.372;2023-04-06T14:46:37;6.50;;;2.60;;
73276;SDS011;61501;43.316;5.372;2023-04-06T14:49:03;5.70;;;2.20;;
73276;SDS011;61501;43.316;5.372;2023-04-06T14:51:29;4.03;;;2.30;;
73276;SDS011;61501;43.316;5.372;2023-04-06T14:53:55;3.75;;;2.38;;
73276;SDS011;61501;43.316;5.372;2023-04-06T14:56:21;5.25;;;2.33;;